Time;durP1;ratioP1;P1;durP2;ratioP2;P2;SDS_P1;SDS_P2;PMS_P1;PMS_P2;Temp;Humidity;BMP_temperature;BMP_pressure;BME280_temperature;BME280_humidity;BME280_pressure;Samples;Min_cycle;Max_cycle;Signal;HPM_P1;HPM_P2
2023/01/31 01:52:28;;;;;;;3.63;2.53;;;;;;;3.21;100.00;99294.91;6214764;23;20216;-79
2023/01/31 01:54:59;;;;;;;3.43;2.60;;;;;;;3.32;100.00;99297.09;6164166;23;20269;-79
2023/01/31 01:57:35;;;;;;;3.10;2.37;;;;;;;3.30;100.00;99288.53;6139643;23;20320;-79
2023/01/31 02:00:23;;;;;;;4.03;2.80;;;;;;;3.27;100.00;99312.69;6139124;23;20205;-78
2023/01/31 02:02:53;;;;;;;3.83;2.50;;;;;;;3.34;100.00;99306.53;6163923;23;20667;-79
2023/01/31 02:05:33;;;;;;;3.60;2.53;;;;;;;3.27;100.00;99297.63;6191930;23;20198;-78
2023/01/31 02:08:01;;;;;;;4.37;2.23;;;;;;;3.32;100.00;99315.63;6188997;23;20205;-79
2023/01/31 02:10:36;;;;;;;3.10;2.07;;;;;;;3.34;100.00;99325.06;6163863;23;20209;-79
2023/01/31 02:13:05;;;;;;;3.63;2.50;;;;;;;3.45;100.00;99334.38;6164719;23;20221;-79
2023/01/31 02:15:32;;;;;;;2.93;2.33;;;;;;;3.54;100.00;99322.69;6140083;23;20202;-80
2023/01/31 02:18:00;;;;;;;4.60;2.33;;;;;;;3.51;100.00;99318.56;6164305;23;20220;-79
2023/01/31 02:20:47;;;;;;;4.30;2.40;;;;;;;3.65;100.00;99308.16;6190082;23;20244;-79
2023/01/31 02:23:39;;;;;;;4.07;2.50;;;;;;;3.63;100.00;99316.31;6164656;23;20291;-80
2023/01/31 02:26:18;;;;;;;3.17;2.37;;;;;;;3.57;100.00;99327.63;6164288;23;20298;-79
2023/01/31 02:29:03;;;;;;;4.73;2.33;;;;;;;3.73;100.00;99318.69;6190716;23;20224;-80
2023/01/31 02:31:44;;;;;;;4.17;2.20;;;;;;;3.71;100.00;99315.38;6196422;23;20214;-81
2023/01/31 02:34:36;;;;;;;2.70;2.20;;;;;;;3.64;100.00;99323.22;6178601;23;20217;-81
2023/01/31 02:37:16;;;;;;;2.47;1.90;;;;;;;3.79;100.00;99317.94;6158743;23;20210;-81
2023/01/31 02:40:08;;;;;;;3.03;2.03;;;;;;;3.87;100.00;99321.31;6182372;23;20209;-81
2023/01/31 02:42:48;;;;;;;2.60;1.97;;;;;;;3.84;100.00;99319.03;6147933;23;20202;-81
2023/01/31 02:45:57;;;;;;;2.23;2.00;;;;;;;3.83;100.00;99303.31;6170607;23;20216;-81
2023/01/31 02:48:40;;;;;;;3.13;2.13;;;;;;;3.77;100.00;99326.09;6148574;23;20202;-81
2023/01/31 02:51:30;;;;;;;2.90;1.90;;;;;;;3.88;100.00;99308.88;6201058;23;20186;-81
2023/01/31 02:54:12;;;;;;;3.23;1.93;;;;;;;3.84;100.00;99307.59;6145359;23;20194;-81
2023/01/31 02:56:44;;;;;;;4.27;2.10;;;;;;;3.80;100.00;99301.03;6133397;23;20174;-82
2023/01/31 02:59:30;;;;;;;2.40;2.07;;;;;;;3.90;100.00;99323.59;6156408;23;20177;-82
2023/01/31 03:02:01;;;;;;;2.27;2.00;;;;;;;3.97;100.00;99315.72;6157424;23;20155;-81
2023/01/31 03:04:32;;;;;;;3.03;1.90;;;;;;;4.03;100.00;99319.47;6155369;23;20151;-81
2023/01/31 03:07:09;;;;;;;3.83;2.00;;;;;;;3.77;100.00;99304.06;6152243;23;20266;-80
2023/01/31 03:09:47;;;;;;;3.37;2.20;;;;;;;3.80;100.00;99308.97;6150498;23;20246;-81
2023/01/31 03:12:35;;;;;;;2.93;2.23;;;;;;;3.82;100.00;99299.88;6110892;23;20210;-82
2023/01/31 03:15:02;;;;;;;3.30;1.93;;;;;;;3.88;100.00;99322.94;6147766;23;20294;-81
2023/01/31 03:17:42;;;;;;;3.10;2.03;;;;;;;3.72;100.00;99336.41;6148730;23;20214;-81
2023/01/31 03:20:24;;;;;;;3.53;2.13;;;;;;;3.88;100.00;99335.38;6169870;23;20214;-80
2023/01/31 03:23:00;;;;;;;6.00;2.40;;;;;;;3.84;100.00;99347.34;6171579;23;20221;-81
2023/01/31 03:25:30;;;;;;;2.70;2.17;;;;;;;3.87;100.00;99345.16;6120473;23;20209;-80
2023/01/31 03:28:05;;;;;;;3.50;2.47;;;;;;;3.85;100.00;99352.47;6142325;23;20218;-80
2023/01/31 03:30:35;;;;;;;2.70;2.20;;;;;;;3.89;100.00;99351.09;6140279;23;20210;-81
2023/01/31 03:33:12;;;;;;;3.13;2.30;;;;;;;3.98;100.00;99346.53;6138046;23;20214;-81
2023/01/31 03:35:41;;;;;;;2.83;2.13;;;;;;;3.96;100.00;99357.34;6137566;23;20206;-81
2023/01/31 03:38:16;;;;;;;3.43;2.10;;;;;;;3.87;100.00;99345.16;6114735;23;20215;-80
2023/01/31 03:40:56;;;;;;;3.53;2.17;;;;;;;3.94;100.00;99350.56;6139974;23;20213;-80
2023/01/31 03:44:04;;;;;;;3.10;2.30;;;;;;;3.98;100.00;99357.97;6116977;23;20221;-80
2023/01/31 03:46:37;;;;;;;3.43;2.47;;;;;;;4.04;100.00;99364.34;6103539;23;20202;-81
2023/01/31 03:49:07;;;;;;;3.60;1.90;;;;;;;3.97;100.00;99374.03;6076460;23;20211;-80
2023/01/31 03:51:37;;;;;;;3.57;2.10;;;;;;;4.02;100.00;99384.09;6118749;23;20230;-80
2023/01/31 03:54:08;;;;;;;4.47;2.17;;;;;;;4.06;100.00;99372.94;6146017;23;20210;-81
2023/01/31 03:56:41;;;;;;;3.03;2.30;;;;;;;4.01;100.00;99375.34;6171739;23;20256;-80
2023/01/31 03:59:13;;;;;;;4.03;2.07;;;;;;;4.12;100.00;99374.03;6171559;23;20214;-80
2023/01/31 04:01:47;;;;;;;3.00;2.30;;;;;;;4.14;100.00;99394.06;6141350;23;20262;-79
2023/01/31 04:04:21;;;;;;;3.93;2.27;;;;;;;4.01;100.00;99377.16;6159743;23;20272;-79
2023/01/31 04:06:48;;;;;;;3.83;2.23;;;;;;;4.06;100.00;99393.34;6185827;23;20538;-79
2023/01/31 04:09:15;;;;;;;3.33;2.47;;;;;;;3.99;100.00;99378.16;6159099;23;20270;-79
2023/01/31 04:11:46;;;;;;;4.23;2.10;;;;;;;4.09;100.00;99388.50;6184359;23;20701;-79
2023/01/31 04:14:13;;;;;;;3.43;2.10;;;;;;;4.08;100.00;99380.72;6184964;23;20206;-79
2023/01/31 04:16:40;;;;;;;4.70;2.10;;;;;;;3.91;100.00;99372.13;6185300;23;20198;-79
2023/01/31 04:19:07;;;;;;;3.07;2.17;;;;;;;4.02;100.00;99376.97;6159275;23;20260;-79
2023/01/31 04:21:33;;;;;;;3.17;2.00;;;;;;;3.91;100.00;99378.28;6185299;23;20651;-79
2023/01/31 04:24:00;;;;;;;4.23;2.17;;;;;;;3.94;100.00;99379.72;6175178;23;20667;-80
2023/01/31 04:26:27;;;;;;;3.70;2.40;;;;;;;3.89;100.00;99384.75;6157404;23;20286;-79
2023/01/31 04:28:53;;;;;;;3.13;2.10;;;;;;;3.82;100.00;99381.19;6156658;23;20207;-80
2023/01/31 04:31:20;;;;;;;5.07;2.33;;;;;;;3.94;100.00;99387.66;6157890;23;20211;-80
2023/01/31 04:33:47;;;;;;;4.87;2.47;;;;;;;3.91;100.00;99374.78;6157002;23;20608;-79
2023/01/31 04:36:13;;;;;;;4.00;2.33;;;;;;;4.00;100.00;99384.28;6156977;23;20600;-79
2023/01/31 04:38:40;;;;;;;3.83;2.13;;;;;;;4.02;100.00;99384.09;6158346;23;20280;-79
2023/01/31 04:41:07;;;;;;;3.77;2.00;;;;;;;4.01;100.00;99369.22;6156774;23;20214;-79
2023/01/31 04:43:33;;;;;;;4.40;2.20;;;;;;;4.00;100.00;99384.28;6131650;23;20286;-80
2023/01/31 04:46:00;;;;;;;3.60;2.10;;;;;;;4.01;100.00;99375.34;6160896;23;20203;-79
2023/01/31 04:48:27;;;;;;;3.67;2.30;;;;;;;4.00;100.00;99405.50;6133957;23;20282;-80
2023/01/31 04:50:55;;;;;;;4.03;2.10;;;;;;;3.99;100.00;99385.28;6135269;23;20210;-80
2023/01/31 04:53:22;;;;;;;5.07;2.50;;;;;;;4.08;100.00;99384.19;6146505;23;20203;-79
2023/01/31 04:55:48;;;;;;;3.40;2.37;;;;;;;4.04;100.00;99390.88;6160292;23;20203;-80
2023/01/31 04:58:15;;;;;;;4.07;2.10;;;;;;;4.12;100.00;99405.84;6160874;23;20683;-79
2023/01/31 05:00:43;;;;;;;3.47;2.07;;;;;;;4.11;100.00;99410.31;6135304;23;20286;-80
2023/01/31 05:03:11;;;;;;;4.13;2.50;;;;;;;3.94;100.00;99409.69;6159507;23;20267;-79
2023/01/31 05:05:37;;;;;;;4.70;2.20;;;;;;;3.93;100.00;99410.69;6159520;23;20214;-79
2023/01/31 05:08:04;;;;;;;4.43;2.17;;;;;;;3.94;100.00;99425.59;6159798;23;20203;-79
2023/01/31 05:10:32;;;;;;;3.37;2.10;;;;;;;3.89;100.00;99429.78;6161175;23;20207;-79
2023/01/31 05:12:59;;;;;;;3.47;2.43;;;;;;;3.82;100.00;99410.34;6135601;23;20210;-80
2023/01/31 05:15:26;;;;;;;3.77;2.10;;;;;;;3.94;100.00;99438.84;6159962;23;20215;-79
2023/01/31 05:18:01;;;;;;;3.63;2.43;;;;;;;3.97;100.00;99435.84;6160915;23;20297;-80
2023/01/31 05:20:37;;;;;;;4.57;2.23;;;;;;;4.03;100.00;99438.75;6160197;23;20203;-79
2023/01/31 05:23:03;;;;;;;3.67;1.93;;;;;;;3.90;100.00;99453.47;6135860;23;20269;-79
2023/01/31 05:25:30;;;;;;;4.23;2.30;;;;;;;3.83;100.00;99457.00;6110511;23;20625;-79
2023/01/31 05:27:57;;;;;;;3.73;2.00;;;;;;;3.89;100.00;99465.06;6160428;23;20217;-80
2023/01/31 05:30:23;;;;;;;2.60;1.80;;;;;;;3.94;100.00;99452.09;6159527;23;20290;-79
2023/01/31 05:32:50;;;;;;;3.20;2.07;;;;;;;3.92;100.00;99454.09;6158649;23;20206;-79
2023/01/31 05:35:17;;;;;;;4.27;2.23;;;;;;;3.85;100.00;99453.19;6160245;23;20553;-80
2023/01/31 05:37:45;;;;;;;5.10;2.50;;;;;;;3.84;100.00;99453.38;6134445;23;20211;-79
2023/01/31 05:40:13;;;;;;;3.50;2.07;;;;;;;3.94;100.00;99464.53;6120853;23;20746;-80
2023/01/31 05:42:40;;;;;;;5.30;2.50;;;;;;;3.93;100.00;99461.06;6134756;23;20213;-79
2023/01/31 05:45:08;;;;;;;5.03;2.33;;;;;;;3.94;100.00;99459.22;6160474;23;20211;-79
2023/01/31 05:47:35;;;;;;;3.37;2.40;;;;;;;4.03;100.00;99463.44;6134081;23;20231;-80
2023/01/31 05:50:01;;;;;;;4.40;2.40;;;;;;;3.95;100.00;99471.50;6145187;23;20191;-78
2023/01/31 05:52:28;;;;;;;5.33;2.60;;;;;;;4.00;100.00;99477.06;6142343;23;20648;-79
2023/01/31 05:54:55;;;;;;;5.80;2.43;;;;;;;3.98;100.00;99479.06;6161642;23;20210;-79
2023/01/31 05:57:22;;;;;;;4.57;2.40;;;;;;;3.98;100.00;99479.06;6161650;23;20210;-79
2023/01/31 05:59:48;;;;;;;3.47;2.20;;;;;;;4.03;100.00;99489.13;6161318;23;20594;-79
2023/01/31 06:02:15;;;;;;;4.60;2.10;;;;;;;4.08;100.00;99490.25;6160581;23;20225;-79
2023/01/31 06:04:42;;;;;;;4.23;2.23;;;;;;;4.10;100.00;99493.53;6158904;23;20202;-80
2023/01/31 06:07:08;;;;;;;4.07;2.50;;;;;;;4.07;100.00;99499.19;6160438;23;20233;-79
2023/01/31 06:09:37;;;;;;;3.67;2.20;;;;;;;4.01;100.00;99483.22;6158663;23;20615;-80
2023/01/31 06:12:04;;;;;;;3.17;1.97;;;;;;;4.03;100.00;99492.59;6159377;23;20215;-79
2023/01/31 06:14:31;;;;;;;3.13;2.40;;;;;;;4.08;100.00;99494.72;6160850;23;20207;-80
2023/01/31 06:16:58;;;;;;;5.10;2.07;;;;;;;4.06;100.00;99502.03;6160403;23;20207;-79
2023/01/31 06:19:26;;;;;;;3.60;2.27;;;;;;;3.96;100.00;99503.13;6157725;23;20257;-79
2023/01/31 06:21:52;;;;;;;6.30;2.43;;;;;;;4.01;100.00;99507.06;6157895;23;20203;-79
2023/01/31 06:24:19;;;;;;;6.03;2.30;;;;;;;4.06;100.00;99510.78;6159559;23;20209;-80
2023/01/31 06:26:46;;;;;;;5.07;2.23;;;;;;;4.07;100.00;99508.97;6159536;23;20198;-80
2023/01/31 06:29:12;;;;;;;3.63;2.30;;;;;;;3.96;100.00;99515.56;6157495;23;20682;-79
2023/01/31 06:31:43;;;;;;;4.03;2.30;;;;;;;4.07;100.00;99536.31;6162380;23;20270;-80
2023/01/31 06:34:10;;;;;;;4.77;2.43;;;;;;;4.02;100.00;99509.50;6158360;23;20723;-79
2023/01/31 06:36:37;;;;;;;4.70;2.20;;;;;;;4.09;100.00;99528.19;6158728;23;20202;-80
2023/01/31 06:39:04;;;;;;;4.53;2.30;;;;;;;4.06;100.00;99532.00;6160567;23;20214;-79
2023/01/31 06:41:30;;;;;;;4.93;2.60;;;;;;;4.02;100.00;99537.84;6158866;23;20209;-79
2023/01/31 06:43:57;;;;;;;4.13;2.27;;;;;;;4.00;100.00;99532.75;6159958;23;20229;-80
2023/01/31 06:46:24;;;;;;;4.93;2.23;;;;;;;3.99;100.00;99549.66;6158667;23;20205;-79
2023/01/31 06:48:50;;;;;;;4.20;2.50;;;;;;;3.87;100.00;99548.44;6159980;23;20207;-79
2023/01/31 06:51:17;;;;;;;2.87;2.00;;;;;;;4.13;100.00;99553.34;6160300;23;20747;-79
2023/01/31 06:53:44;;;;;;;3.50;2.20;;;;;;;4.04;100.00;99552.59;6188035;23;20206;-79
2023/01/31 06:56:10;;;;;;;4.47;2.27;;;;;;;4.04;100.00;99560.53;6162150;23;20202;-79
2023/01/31 06:58:37;;;;;;;4.73;2.30;;;;;;;4.13;100.00;99556.81;6189781;23;20683;-80
2023/01/31 07:01:08;;;;;;;3.43;2.30;;;;;;;4.02;100.00;99562.53;6189642;23;20206;-80
2023/01/31 07:03:35;;;;;;;3.40;1.87;;;;;;;4.20;100.00;99573.63;6189372;23;20252;-79
2023/01/31 07:06:01;;;;;;;5.20;1.97;;;;;;;4.22;100.00;99582.25;6138258;23;20228;-78
2023/01/31 07:08:29;;;;;;;6.37;2.30;;;;;;;4.04;100.00;99575.63;6160825;23;20280;-80
2023/01/31 07:11:00;;;;;;;4.33;2.00;;;;;;;4.26;100.00;99590.66;6163801;23;20225;-79
2023/01/31 07:13:29;;;;;;;5.80;2.20;;;;;;;4.24;100.00;99579.44;6189087;23;20273;-79
2023/01/31 07:15:56;;;;;;;4.80;1.90;;;;;;;4.30;100.00;99576.84;6189284;23;20206;-79
2023/01/31 07:18:22;;;;;;;3.63;2.00;;;;;;;4.26;100.00;99559.66;6188388;23;20209;-80
2023/01/31 07:20:49;;;;;;;4.17;2.20;;;;;;;4.39;100.00;99569.63;6162177;23;20614;-79
2023/01/31 07:23:16;;;;;;;4.70;2.17;;;;;;;4.34;100.00;99579.97;6162593;23;20660;-79
2023/01/31 07:25:43;;;;;;;7.17;2.50;;;;;;;4.29;100.00;99585.00;6190276;23;20663;-79
2023/01/31 07:28:10;;;;;;;5.20;2.70;;;;;;;4.43;100.00;99595.63;6190698;23;20228;-80
2023/01/31 07:30:38;;;;;;;7.60;2.23;;;;;;;4.47;100.00;99589.97;6190230;23;20202;-79
2023/01/31 07:33:06;;;;;;;6.07;2.30;;;;;;;4.54;100.00;99590.88;6192057;23;20206;-80
2023/01/31 07:35:32;;;;;;;5.53;2.00;;;;;;;4.58;100.00;99600.94;6166707;23;20257;-80
2023/01/31 07:37:59;;;;;;;4.00;2.10;;;;;;;4.53;100.00;99592.72;6195731;23;20209;-80
2023/01/31 07:40:26;;;;;;;4.37;1.90;;;;;;;4.60;100.00;99600.78;6170039;23;20651;-80
2023/01/31 07:42:57;;;;;;;3.03;1.63;;;;;;;4.59;100.00;99602.59;6195001;23;20210;-80
2023/01/31 07:45:25;;;;;;;3.30;1.67;;;;;;;4.62;100.00;99601.44;6170416;23;20534;-80
2023/01/31 07:47:51;;;;;;;2.63;1.30;;;;;;;4.68;100.00;99627.22;6195850;23;20213;-80
2023/01/31 07:50:18;;;;;;;3.83;1.43;;;;;;;4.75;100.00;99610.41;6201311;23;20217;-80
2023/01/31 07:52:47;;;;;;;4.53;1.50;;;;;;;4.83;100.00;99623.59;6177942;23;20222;-80
2023/01/31 07:55:15;;;;;;;4.73;1.60;;;;;;;4.70;100.00;99611.94;6183091;23;20213;-81
2023/01/31 07:57:42;;;;;;;3.80;1.40;;;;;;;4.72;100.00;99626.69;6178340;23;20262;-81
2023/01/31 08:03:31;;;;;;;4.20;1.50;;;;;;;4.80;100.00;99610.69;6158227;23;20206;-81
2023/01/31 08:05:45;;;;;;;4.37;1.47;;;;;;;4.94;100.00;99646.22;6167866;23;20202;-79
2023/01/31 08:08:12;;;;;;;3.00;1.40;;;;;;;4.98;100.00;99659.94;6162376;23;20301;-79
2023/01/31 08:10:39;;;;;;;3.20;1.40;;;;;;;5.03;100.00;99663.69;6189048;23;20205;-79
2023/01/31 08:13:06;;;;;;;3.87;2.10;;;;;;;5.15;100.00;99675.50;6188835;23;20210;-79
2023/01/31 08:15:33;;;;;;;4.23;1.90;;;;;;;5.23;100.00;99678.03;6189327;23;20210;-79
2023/01/31 08:17:59;;;;;;;4.83;1.70;;;;;;;5.35;100.00;99675.75;6188338;23;20206;-79
2023/01/31 08:20:26;;;;;;;4.73;2.10;;;;;;;5.49;100.00;99676.75;6162535;23;20225;-79
2023/01/31 08:22:57;;;;;;;3.93;1.63;;;;;;;5.43;100.00;99680.13;6189646;23;20233;-79
2023/01/31 08:25:25;;;;;;;3.57;1.50;;;;;;;5.48;100.00;99683.91;6189966;23;20212;-82
2023/01/31 08:27:52;;;;;;;5.50;2.00;;;;;;;5.53;100.00;99672.72;6163571;23;20214;-81
2023/01/31 08:30:19;;;;;;;3.83;1.63;;;;;;;5.52;100.00;99682.50;6189725;23;20280;-82
2023/01/31 08:32:45;;;;;;;2.50;1.20;;;;;;;5.57;100.00;99669.50;6189395;23;20284;-81
2023/01/31 08:35:12;;;;;;;4.63;1.60;;;;;;;5.73;100.00;99682.56;6188828;23;20281;-82
2023/01/31 08:37:38;;;;;;;5.33;1.50;;;;;;;5.73;100.00;99687.06;6188238;23;20205;-82
2023/01/31 08:40:06;;;;;;;3.77;1.50;;;;;;;5.78;100.00;99678.53;6188074;23;20301;-81
2023/01/31 08:42:33;;;;;;;3.27;1.40;;;;;;;5.67;100.00;99685.16;6162967;23;20209;-82
2023/01/31 08:44:59;;;;;;;4.40;1.80;;;;;;;5.58;100.00;99694.25;6198162;23;20208;-83
2023/01/31 08:47:26;;;;;;;4.40;1.70;;;;;;;5.60;100.00;99689.56;6174267;23;20210;-82
2023/01/31 08:49:53;;;;;;;2.97;1.63;;;;;;;5.51;100.00;99694.16;6149632;23;20213;-83
2023/01/31 08:52:21;;;;;;;4.30;1.73;;;;;;;5.43;100.00;99678.31;6146719;23;20210;-83
2023/01/31 08:54:49;;;;;;;4.17;2.23;;;;;;;5.48;100.00;99694.53;6172924;23;20202;-83
2023/01/31 08:57:15;;;;;;;4.77;2.07;;;;;;;5.65;100.00;99697.78;6168486;23;20289;-82
2023/01/31 08:59:42;;;;;;;5.00;2.50;;;;;;;5.32;100.00;99716.78;6163601;23;20210;-82
2023/01/31 09:02:10;;;;;;;3.70;2.40;;;;;;;5.31;100.00;99727.63;6190209;23;20209;-83
2023/01/31 09:04:36;;;;;;;5.10;2.47;;;;;;;5.13;100.00;99730.59;6163972;23;20190;-82
2023/01/31 09:07:03;;;;;;;4.57;2.23;;;;;;;5.02;100.00;99719.63;6190428;23;20206;-82
2023/01/31 09:09:29;;;;;;;4.43;2.20;;;;;;;4.99;100.00;99730.63;6190023;23;20233;-82
2023/01/31 09:11:56;;;;;;;6.77;2.80;;;;;;;4.76;100.00;99718.19;6189746;23;20546;-82
2023/01/31 09:14:23;;;;;;;5.47;2.90;;;;;;;4.85;100.00;99724.28;6188120;23;20213;-82
2023/01/31 09:16:50;;;;;;;3.70;2.40;;;;;;;4.85;100.00;99740.22;6162868;23;20289;-80
2023/01/31 09:19:16;;;;;;;4.40;2.50;;;;;;;4.92;100.00;99724.38;6188768;23;20210;-81
2023/01/31 09:21:43;;;;;;;5.27;2.40;;;;;;;4.87;100.00;99731.06;6189057;23;20285;-81
2023/01/31 09:24:10;;;;;;;4.80;2.50;;;;;;;4.91;100.00;99728.84;6189996;23;20746;-81
2023/01/31 09:26:37;;;;;;;6.57;2.40;;;;;;;5.06;100.00;99728.88;6189974;23;20272;-81
2023/01/31 09:29:04;;;;;;;6.27;2.17;;;;;;;5.09;100.00;99726.69;6189632;23;20206;-80
2023/01/31 09:31:30;;;;;;;5.37;2.17;;;;;;;5.14;100.00;99708.38;6189402;23;20689;-81
2023/01/31 09:33:57;;;;;;;6.50;2.20;;;;;;;5.28;100.00;99707.53;6188294;23;20284;-81
2023/01/31 09:36:24;;;;;;;5.53;2.60;;;;;;;5.47;100.00;99718.63;6188222;23;20218;-81
2023/01/31 09:38:57;;;;;;;6.53;2.30;;;;;;;5.59;100.00;99717.97;6188507;23;20654;-80
2023/01/31 09:41:27;;;;;;;3.73;2.10;;;;;;;5.69;100.00;99715.84;6189003;23;20210;-80
2023/01/31 09:44:26;;;;;;;4.67;2.03;;;;;;;5.54;100.00;99703.59;6148498;23;20213;-81
2023/01/31 09:46:55;;;;;;;4.17;1.80;;;;;;;5.68;100.00;99721.34;6177593;23;20261;-80
2023/01/31 09:49:30;;;;;;;3.87;2.10;;;;;;;5.69;100.00;99715.03;6188174;23;20260;-80
2023/01/31 09:52:01;;;;;;;4.50;1.80;;;;;;;5.87;100.00;99712.81;6136894;23;20209;-82
2023/01/31 09:54:37;;;;;;;3.67;1.87;;;;;;;5.80;100.00;99719.84;6190167;23;20206;-82
2023/01/31 09:57:22;;;;;;;6.93;2.00;;;;;;;5.90;100.00;99717.75;6162786;23;20213;-80
2023/01/31 09:59:58;;;;;;;3.13;1.67;;;;;;;5.94;100.00;99720.88;6161423;23;20667;-81
2023/01/31 10:02:27;;;;;;;4.73;1.80;;;;;;;6.06;100.00;99704.25;6176924;23;20224;-81
2023/01/31 10:05:38;;;;;;;5.17;1.70;;;;;;;6.16;100.00;99714.56;6187660;23;20210;-81
2023/01/31 10:08:35;;;;;;;4.70;1.53;;;;;;;6.27;100.00;99719.38;6174329;23;20209;-80
2023/01/31 10:11:05;;;;;;;3.20;1.37;;;;;;;6.33;100.00;99707.16;6188523;23;20220;-81
2023/01/31 10:13:38;;;;;;;5.27;1.80;;;;;;;6.50;100.00;99692.56;6189851;23;20209;-81
2023/01/31 10:16:14;;;;;;;2.87;1.10;;;;;;;6.55;100.00;99698.97;6161092;23;20237;-80
2023/01/31 10:18:44;;;;;;;2.87;1.30;;;;;;;6.42;100.00;99684.72;6190938;23;20213;-81
2023/01/31 10:21:18;;;;;;;2.57;1.80;;;;;;;6.47;100.00;99706.28;6164984;23;20212;-81
2023/01/31 10:23:48;;;;;;;3.27;1.30;;;;;;;6.73;100.00;99703.00;6172126;23;20206;-82
2023/01/31 10:26:19;;;;;;;3.50;1.50;;;;;;;6.74;100.00;99700.16;6148961;23;20206;-81
2023/01/31 10:28:59;;;;;;;5.83;1.50;;;;;;;6.90;97.58;99683.88;6151040;23;20236;-82
2023/01/31 10:31:49;;;;;;;3.50;1.57;;;;;;;6.88;98.03;99704.56;6174931;23;20178;-81
2023/01/31 10:34:23;;;;;;;5.37;1.20;;;;;;;6.80;97.23;99709.22;6149717;23;20186;-82
2023/01/31 10:37:04;;;;;;;3.33;1.43;;;;;;;6.79;98.09;99731.53;6174647;23;20205;-82
2023/01/31 10:39:35;;;;;;;4.17;1.50;;;;;;;6.86;97.97;99717.22;6174728;23;20662;-82
2023/01/31 10:42:26;;;;;;;3.33;1.60;;;;;;;7.03;99.24;99691.13;6151066;23;20210;-82
2023/01/31 10:44:59;;;;;;;4.43;1.50;;;;;;;7.06;96.83;99707.53;6201559;23;20212;-83
2023/01/31 10:47:59;;;;;;;3.97;1.37;;;;;;;6.97;96.59;99705.22;6202125;23;20210;-82
2023/01/31 10:50:29;;;;;;;2.70;1.33;;;;;;;6.95;94.85;99696.63;6174216;23;20202;-82
2023/01/31 10:53:12;;;;;;;4.43;1.40;;;;;;;7.17;95.29;99695.53;6174831;23;20228;-82
2023/01/31 10:55:50;;;;;;;3.23;1.43;;;;;;;7.04;96.64;99700.78;6187459;23;20202;-82
2023/01/31 10:58:21;;;;;;;5.07;1.33;;;;;;;7.34;94.45;99690.69;6174746;23;20261;-82
2023/01/31 11:00:48;;;;;;;3.70;1.50;;;;;;;7.48;94.58;99685.22;6174997;23;20213;-82
2023/01/31 11:03:15;;;;;;;3.37;1.50;;;;;;;7.61;95.36;99675.63;6174110;23;20210;-82
2023/01/31 11:05:49;;;;;;;4.40;1.47;;;;;;;7.40;92.44;99692.56;6175260;23;20210;-82
2023/01/31 11:08:30;;;;;;;3.03;1.47;;;;;;;6.98;89.98;99664.25;6171797;23;20216;-82
2023/01/31 11:10:58;;;;;;;3.50;1.67;;;;;;;7.34;91.69;99686.19;6172218;23;20245;-82
2023/01/31 11:13:24;;;;;;;2.83;1.50;;;;;;;7.28;90.63;99680.84;6172707;23;20210;-82
2023/01/31 11:15:52;;;;;;;4.17;1.20;;;;;;;6.89;89.09;99682.25;6198052;23;20221;-82
2023/01/31 11:18:45;;;;;;;2.03;1.03;;;;;;;6.90;89.01;99675.06;6197895;23;20218;-81
2023/01/31 11:21:22;;;;;;;5.17;1.40;;;;;;;6.97;88.69;99674.09;6171276;23;20542;-82
2023/01/31 11:23:50;;;;;;;1.80;1.10;;;;;;;7.33;87.59;99665.06;6147162;23;20209;-81
2023/01/31 11:26:32;;;;;;;1.83;1.00;;;;;;;7.18;83.79;99672.38;6171111;23;20214;-81
2023/01/31 11:29:00;;;;;;;3.20;1.50;;;;;;;7.15;87.99;99686.91;6172339;23;20202;-81
2023/01/31 11:31:31;;;;;;;5.60;1.50;;;;;;;7.29;89.77;99687.78;6147919;23;20225;-82
2023/01/31 11:34:00;;;;;;;3.70;1.60;;;;;;;7.57;90.88;99690.38;6174597;23;20206;-83
2023/01/31 11:36:42;;;;;;;3.27;1.67;;;;;;;7.15;92.11;99678.06;6174449;23;20217;-82
2023/01/31 11:39:27;;;;;;;3.93;1.97;;;;;;;7.16;93.68;99688.56;6175750;23;20236;-82
2023/01/31 11:41:54;;;;;;;2.93;1.47;;;;;;;7.11;94.98;99685.66;6202363;23;20210;-82
2023/01/31 11:44:22;;;;;;;2.83;1.90;;;;;;;7.09;96.62;99691.16;6174238;23;20285;-82
2023/01/31 11:46:53;;;;;;;3.20;1.90;;;;;;;6.96;96.22;99676.94;6174513;23;20258;-82
2023/01/31 11:49:23;;;;;;;4.10;2.10;;;;;;;6.67;97.15;99703.78;6148201;23;20256;-82
2023/01/31 11:51:50;;;;;;;5.37;2.00;;;;;;;6.79;97.97;99705.72;6171595;23;20237;-81
2023/01/31 11:54:20;;;;;;;3.27;1.90;;;;;;;6.87;98.14;99681.59;6160664;23;20210;-81
2023/01/31 11:56:47;;;;;;;4.30;2.10;;;;;;;6.85;98.71;99694.31;6190377;23;20255;-81
2023/01/31 11:59:18;;;;;;;5.47;2.23;;;;;;;7.00;100.00;99694.16;6190273;23;20280;-82
2023/01/31 12:01:50;;;;;;;3.80;2.20;;;;;;;7.18;98.13;99686.53;6189634;23;20213;-81
2023/01/31 12:04:24;;;;;;;4.03;2.20;;;;;;;7.18;96.84;99677.69;6163520;23;20210;-81
2023/01/31 12:07:00;;;;;;;5.17;2.10;;;;;;;6.91;99.28;99672.19;6163869;23;20240;-81
2023/01/31 12:09:31;;;;;;;4.50;1.90;;;;;;;6.95;99.96;99673.44;6164134;23;20217;-81
2023/01/31 12:12:01;;;;;;;4.20;2.10;;;;;;;7.24;98.17;99693.72;6190678;23;20206;-82
2023/01/31 12:14:40;;;;;;;3.47;1.90;;;;;;;7.32;96.60;99685.56;6164559;23;20206;-81
2023/01/31 12:17:13;;;;;;;3.30;2.17;;;;;;;7.34;94.98;99680.84;6163877;23;20206;-82
2023/01/31 12:19:58;;;;;;;4.13;1.93;;;;;;;7.31;95.69;99680.44;6165023;23;20699;-82
2023/01/31 12:22:37;;;;;;;3.57;2.03;;;;;;;7.57;95.00;99683.22;6175261;23;20202;-81
2023/01/31 12:25:39;;;;;;;3.60;2.10;;;;;;;7.47;95.66;99680.09;6188485;23;20210;-81
2023/01/31 12:28:11;;;;;;;6.07;1.90;;;;;;;6.82;93.94;99670.69;6188946;23;20205;-80
2023/01/31 12:31:05;;;;;;;5.77;1.80;;;;;;;6.74;94.34;99673.53;6163079;23;20206;-81
2023/01/31 12:33:50;;;;;;;4.50;1.87;;;;;;;6.62;94.50;99672.41;6189111;23;20551;-81
2023/01/31 12:36:22;;;;;;;4.00;1.60;;;;;;;6.46;94.16;99670.00;6188531;23;20232;-81
2023/01/31 12:39:27;;;;;;;6.63;2.03;;;;;;;6.57;95.89;99675.66;6138697;23;20202;-81
2023/01/31 12:41:57;;;;;;;3.63;1.77;;;;;;;6.39;94.34;99658.50;6129226;23;20689;-81
2023/01/31 12:44:48;;;;;;;4.47;1.90;;;;;;;6.39;95.60;99666.50;6187730;23;20206;-82
2023/01/31 12:47:33;;;;;;;4.63;1.87;;;;;;;6.60;94.11;99667.28;6188702;23;20202;-80
2023/01/31 12:50:08;;;;;;;5.57;1.83;;;;;;;6.59;95.11;99665.63;6188952;23;20294;-80
2023/01/31 12:52:38;;;;;;;4.30;1.90;;;;;;;6.68;94.28;99657.47;6162085;23;20251;-81
2023/01/31 12:55:08;;;;;;;5.63;2.10;;;;;;;6.69;91.91;99648.47;6164110;23;20202;-81
2023/01/31 12:58:09;;;;;;;4.23;1.80;;;;;;;6.60;91.96;99656.63;6189654;23;20272;-81
2023/01/31 13:00:39;;;;;;;3.67;1.63;;;;;;;6.84;91.80;99652.69;6163224;23;20205;-81
2023/01/31 13:03:29;;;;;;;4.17;1.70;;;;;;;6.86;90.53;99644.53;6163980;23;20667;-81
2023/01/31 13:06:01;;;;;;;3.70;1.70;;;;;;;6.71;90.59;99652.63;6191741;23;20218;-81
2023/01/31 13:08:31;;;;;;;4.43;1.97;;;;;;;6.73;90.31;99658.56;6188630;23;20202;-81
2023/01/31 13:11:02;;;;;;;4.33;1.77;;;;;;;6.76;90.53;99649.38;6166762;23;20210;-81
2023/01/31 13:13:37;;;;;;;3.73;1.73;;;;;;;6.75;90.23;99645.88;6192277;23;20217;-81
2023/01/31 13:16:25;;;;;;;2.57;1.77;;;;;;;6.56;90.21;99639.41;6167259;23;20205;-81
2023/01/31 13:18:55;;;;;;;5.67;1.67;;;;;;;6.94;90.16;99647.84;6165790;23;20205;-81
2023/01/31 13:21:25;;;;;;;4.50;1.77;;;;;;;7.05;90.26;99649.13;6166069;23;20281;-82
2023/01/31 13:23:56;;;;;;;4.70;1.80;;;;;;;6.85;90.15;99649.03;6166838;23;20217;-81
2023/01/31 13:26:28;;;;;;;5.80;1.70;;;;;;;6.88;88.18;99635.31;6191594;23;20197;-81
2023/01/31 13:28:59;;;;;;;5.00;1.60;;;;;;;6.80;88.81;99640.78;6165734;23;20214;-81
2023/01/31 13:31:28;;;;;;;3.10;1.50;;;;;;;6.83;88.91;99640.41;6191981;23;20252;-81
2023/01/31 13:33:59;;;;;;;6.10;1.80;;;;;;;6.69;88.25;99645.81;6162013;23;20733;-81
2023/01/31 13:36:42;;;;;;;3.30;1.73;;;;;;;6.43;87.48;99631.31;6162154;23;20650;-81
2023/01/31 13:39:33;;;;;;;3.80;1.30;;;;;;;6.45;88.05;99623.13;6191087;23;20651;-81
2023/01/31 13:41:59;;;;;;;3.13;1.20;;;;;;;6.52;88.93;99647.97;6187528;23;20257;-81
2023/01/31 13:44:26;;;;;;;2.83;1.50;;;;;;;6.44;87.72;99626.81;6160550;23;20210;-80
2023/01/31 13:47:00;;;;;;;6.30;1.53;;;;;;;6.36;87.70;99627.75;6187332;23;20293;-80
2023/01/31 13:49:47;;;;;;;4.53;1.20;;;;;;;6.35;86.58;99627.94;6163820;23;20672;-80
2023/01/31 13:52:26;;;;;;;4.90;1.30;;;;;;;6.37;86.38;99628.59;6162451;23;20244;-81
2023/01/31 13:54:59;;;;;;;4.03;1.23;;;;;;;6.35;86.72;99631.44;6163455;23;20288;-81